sensor_id;sensor_type;location;lat;lon;timestamp;temperature;humidity
53904;DHT22;39812;52.430;16.936;2022-12-01T00:02:04;1.30;99.90
53904;DHT22;39812;52.430;16.936;2022-12-01T00:04:29;1.30;99.90
53904;DHT22;39812;52.430;16.936;2022-12-01T00:06:55;1.30;99.90
53904;DHT22;39812;52.430;16.936;2022-12-01T00:09:20;1.30;99.90
53904;DHT22;39812;52.430;16.936;2022-12-01T00:12:05;1.30;99.90
53904;DHT22;39812;52.430;16.936;2022-12-01T00:14:31;1.30;99.90
53904;DHT22;39812;52.430;16.936;2022-12-01T00:16:57;1.30;99.90
53904;DHT22;39812;52.430;16.936;2022-12-01T00:19:26;1.30;99.90
53904;DHT22;39812;52.430;16.936;2022-12-01T00:21:52;1.40;99.90
53904;DHT22;39812;52.430;16.936;2022-12-01T00:24:18;1.40;99.90
53904;DHT22;39812;52.430;16.936;2022-12-01T00:26:44;1.40;99.90
53904;DHT22;39812;52.430;16.936;2022-12-01T00:29:10;1.40;99.90
53904;DHT22;39812;52.430;16.936;2022-12-01T00:31:35;1.40;99.90
53904;DHT22;39812;52.430;16.936;2022-12-01T00:34:01;1.40;99.90
53904;DHT22;39812;52.430;16.936;2022-12-01T00:36:27;1.50;99.90
53904;DHT22;39812;52.430;16.936;2022-12-01T00:38:53;1.50;99.90
53904;DHT22;39812;52.430;16.936;2022-12-01T00:41:19;1.50;99.90
53904;DHT22;39812;52.430;16.936;2022-12-01T00:43:45;1.50;99.90
53904;DHT22;39812;52.430;16.936;2022-12-01T00:46:10;1.50;99.90
53904;DHT22;39812;52.430;16.936;2022-12-01T00:48:36;1.50;99.90
53904;DHT22;39812;52.430;16.936;2022-12-01T00:51:02;1.40;99.90
53904;DHT22;39812;52.430;16.936;2022-12-01T00:53:27;1.40;99.90
53904;DHT22;39812;52.430;16.936;2022-12-01T00:55:53;1.40;99.90
53904;DHT22;39812;52.430;16.936;2022-12-01T00:58:18;1.30;99.90
53904;DHT22;39812;52.430;16.936;2022-12-01T01:00:44;1.30;99.90
53904;DHT22;39812;52.430;16.936;2022-12-01T01:03:10;1.30;99.90
53904;DHT22;39812;52.430;16.936;2022-12-01T01:05:36;1.30;99.90
53904;DHT22;39812;52.430;16.936;2022-12-01T01:08:06;1.30;99.90
53904;DHT22;39812;52.430;16.936;2022-12-01T01:10:32;1.30;99.90
53904;DHT22;39812;52.430;16.936;2022-12-01T01:12:57;1.30;99.90
53904;DHT22;39812;52.430;16.936;2022-12-01T01:15:23;1.30;99.90
53904;DHT22;39812;52.430;16.936;2022-12-01T01:17:48;1.30;99.90
53904;DHT22;39812;52.430;16.936;2022-12-01T01:20:14;1.30;99.90
53904;DHT22;39812;52.430;16.936;2022-12-01T01:22:39;1.30;99.90
53904;DHT22;39812;52.430;16.936;2022-12-01T01:25:05;1.30;99.90
53904;DHT22;39812;52.430;16.936;2022-12-01T01:27:32;1.30;99.90
53904;DHT22;39812;52.430;16.936;2022-12-01T01:29:58;1.30;99.90
53904;DHT22;39812;52.430;16.936;2022-12-01T01:32:23;1.30;99.90
53904;DHT22;39812;52.430;16.936;2022-12-01T01:34:48;1.30;99.90
53904;DHT22;39812;52.430;16.936;2022-12-01T01:37:14;1.30;99.90
53904;DHT22;39812;52.430;16.936;2022-12-01T01:39:39;1.30;99.90
53904;DHT22;39812;52.430;16.936;2022-12-01T01:42:05;1.30;99.90
53904;DHT22;39812;52.430;16.936;2022-12-01T01:44:51;1.30;99.90
53904;DHT22;39812;52.430;16.936;2022-12-01T01:49:51;1.30;99.90
53904;DHT22;39812;52.430;16.936;2022-12-01T01:52:17;1.30;99.90
53904;DHT22;39812;52.430;16.936;2022-12-01T01:54:47;1.30;99.90
53904;DHT22;39812;52.430;16.936;2022-12-01T01:57:18;1.30;99.90
53904;DHT22;39812;52.430;16.936;2022-12-01T01:59:48;1.30;99.90
53904;DHT22;39812;52.430;16.936;2022-12-01T02:02:16;1.30;99.90
53904;DHT22;39812;52.430;16.936;2022-12-01T02:04:46;1.30;99.90
53904;DHT22;39812;52.430;16.936;2022-12-01T02:07:16;1.30;99.90
53904;DHT22;39812;52.430;16.936;2022-12-01T02:09:42;1.30;99.90
53904;DHT22;39812;52.430;16.936;2022-12-01T02:12:33;1.30;99.90
53904;DHT22;39812;52.430;16.936;2022-12-01T02:15:52;1.40;99.90
53904;DHT22;39812;52.430;16.936;2022-12-01T02:27:03;1.30;99.90
53904;DHT22;39812;52.430;16.936;2022-12-01T02:30:03;1.30;99.90
53904;DHT22;39812;52.430;16.936;2022-12-01T02:32:56;1.40;99.90
53904;DHT22;39812;52.430;16.936;2022-12-01T02:35:45;1.50;99.90
53904;DHT22;39812;52.430;16.936;2022-12-01T02:38:34;1.40;99.90
53904;DHT22;39812;52.430;16.936;2022-12-01T02:44:16;1.60;99.90
53904;DHT22;39812;52.430;16.936;2022-12-01T02:46:58;1.70;99.90
53904;DHT22;39812;52.430;16.936;2022-12-01T02:49:29;1.70;99.90
53904;DHT22;39812;52.430;16.936;2022-12-01T02:51:57;1.70;99.90
53904;DHT22;39812;52.430;16.936;2022-12-01T02:54:24;1.70;99.90
53904;DHT22;39812;52.430;16.936;2022-12-01T02:56:53;1.60;99.90
53904;DHT22;39812;52.430;16.936;2022-12-01T02:59:18;1.60;99.90
53904;DHT22;39812;52.430;16.936;2022-12-01T03:04:27;1.60;99.90
53904;DHT22;39812;52.430;16.936;2022-12-01T03:09:45;1.50;99.90
53904;DHT22;39812;52.430;16.936;2022-12-01T03:12:27;1.50;99.90
53904;DHT22;39812;52.430;16.936;2022-12-01T03:15:17;1.50;99.90
53904;DHT22;39812;52.430;16.936;2022-12-01T03:18:17;1.70;99.90
53904;DHT22;39812;52.430;16.936;2022-12-01T03:21:01;1.80;99.90
53904;DHT22;39812;52.430;16.936;2022-12-01T03:23:31;1.80;99.90
53904;DHT22;39812;52.430;16.936;2022-12-01T03:25:59;1.90;99.90
53904;DHT22;39812;52.430;16.936;2022-12-01T03:28:29;1.90;99.90
53904;DHT22;39812;52.430;16.936;2022-12-01T03:31:00;2.00;99.90
53904;DHT22;39812;52.430;16.936;2022-12-01T03:33:42;2.00;99.90
53904;DHT22;39812;52.430;16.936;2022-12-01T03:36:24;2.00;99.90
53904;DHT22;39812;52.430;16.936;2022-12-01T03:38:56;2.00;99.90
53904;DHT22;39812;52.430;16.936;2022-12-01T03:41:28;1.90;99.90
53904;DHT22;39812;52.430;16.936;2022-12-01T03:44:02;2.00;99.90
53904;DHT22;39812;52.430;16.936;2022-12-01T03:46:39;2.10;99.90
53904;DHT22;39812;52.430;16.936;2022-12-01T03:49:08;2.10;99.90
53904;DHT22;39812;52.430;16.936;2022-12-01T03:52:36;2.20;99.90
53904;DHT22;39812;52.430;16.936;2022-12-01T03:55:04;2.10;99.90
53904;DHT22;39812;52.430;16.936;2022-12-01T03:57:39;2.10;99.90
53904;DHT22;39812;52.430;16.936;2022-12-01T04:00:06;2.10;99.90
53904;DHT22;39812;52.430;16.936;2022-12-01T04:02:32;2.00;99.90
53904;DHT22;39812;52.430;16.936;2022-12-01T04:04:57;1.90;99.90
53904;DHT22;39812;52.430;16.936;2022-12-01T04:07:23;1.80;99.90
53904;DHT22;39812;52.430;16.936;2022-12-01T04:09:48;1.70;99.90
53904;DHT22;39812;52.430;16.936;2022-12-01T04:12:14;1.60;99.90
53904;DHT22;39812;52.430;16.936;2022-12-01T04:15:04;1.60;99.90
53904;DHT22;39812;52.430;16.936;2022-12-01T04:17:30;1.70;99.90
53904;DHT22;39812;52.430;16.936;2022-12-01T04:19:56;1.60;99.90
53904;DHT22;39812;52.430;16.936;2022-12-01T04:22:22;1.50;99.90
53904;DHT22;39812;52.430;16.936;2022-12-01T04:24:48;1.70;99.90
53904;DHT22;39812;52.430;16.936;2022-12-01T04:27:13;1.60;99.90
53904;DHT22;39812;52.430;16.936;2022-12-01T04:29:39;1.60;99.90
53904;DHT22;39812;52.430;16.936;2022-12-01T04:32:04;1.60;99.90
53904;DHT22;39812;52.430;16.936;2022-12-01T04:34:30;1.60;99.90
53904;DHT22;39812;52.430;16.936;2022-12-01T04:36:55;1.60;99.90
53904;DHT22;39812;52.430;16.936;2022-12-01T04:39:21;1.70;99.90
53904;DHT22;39812;52.430;16.936;2022-12-01T04:41:47;1.70;99.90
53904;DHT22;39812;52.430;16.936;2022-12-01T04:44:12;1.70;99.90
53904;DHT22;39812;52.430;16.936;2022-12-01T04:46:38;1.80;99.90
53904;DHT22;39812;52.430;16.936;2022-12-01T04:49:04;1.80;99.90
53904;DHT22;39812;52.430;16.936;2022-12-01T04:51:30;1.80;99.90
53904;DHT22;39812;52.430;16.936;2022-12-01T04:53:55;1.90;99.90
53904;DHT22;39812;52.430;16.936;2022-12-01T04:56:21;1.80;99.90
53904;DHT22;39812;52.430;16.936;2022-12-01T04:58:46;1.70;99.90
53904;DHT22;39812;52.430;16.936;2022-12-01T05:01:14;1.70;99.90
53904;DHT22;39812;52.430;16.936;2022-12-01T05:03:42;1.70;99.90
53904;DHT22;39812;52.430;16.936;2022-12-01T05:06:13;1.80;99.90
53904;DHT22;39812;52.430;16.936;2022-12-01T05:08:40;1.80;99.90
53904;DHT22;39812;52.430;16.936;2022-12-01T05:11:06;1.70;99.90
53904;DHT22;39812;52.430;16.936;2022-12-01T05:13:33;1.80;99.90
53904;DHT22;39812;52.430;16.936;2022-12-01T05:16:16;1.70;99.90
53904;DHT22;39812;52.430;16.936;2022-12-01T05:18:46;1.70;99.90
53904;DHT22;39812;52.430;16.936;2022-12-01T05:21:12;1.70;99.90
53904;DHT22;39812;52.430;16.936;2022-12-01T05:23:38;1.70;99.90
53904;DHT22;39812;52.430;16.936;2022-12-01T05:26:05;1.80;99.90
53904;DHT22;39812;52.430;16.936;2022-12-01T05:28:31;1.80;99.90
53904;DHT22;39812;52.430;16.936;2022-12-01T05:30:57;1.90;99.90
53904;DHT22;39812;52.430;16.936;2022-12-01T05:33:24;1.90;99.90
53904;DHT22;39812;52.430;16.936;2022-12-01T05:35:50;1.90;99.90
53904;DHT22;39812;52.430;16.936;2022-12-01T05:38:16;2.00;99.90
53904;DHT22;39812;52.430;16.936;2022-12-01T05:40:42;1.80;99.90
53904;DHT22;39812;52.430;16.936;2022-12-01T05:43:13;1.80;99.90
53904;DHT22;39812;52.430;16.936;2022-12-01T05:45:38;1.90;99.90
53904;DHT22;39812;52.430;16.936;2022-12-01T05:48:04;1.90;99.90
53904;DHT22;39812;52.430;16.936;2022-12-01T05:50:29;1.70;99.90
53904;DHT22;39812;52.430;16.936;2022-12-01T05:52:55;1.90;99.90
53904;DHT22;39812;52.430;16.936;2022-12-01T05:55:21;1.90;99.90
53904;DHT22;39812;52.430;16.936;2022-12-01T05:57:47;1.90;99.90
53904;DHT22;39812;52.430;16.936;2022-12-01T06:00:13;1.80;99.90
53904;DHT22;39812;52.430;16.936;2022-12-01T06:02:39;1.80;99.90
53904;DHT22;39812;52.430;16.936;2022-12-01T06:05:05;1.90;99.90
53904;DHT22;39812;52.430;16.936;2022-12-01T06:07:31;1.90;99.90
53904;DHT22;39812;52.430;16.936;2022-12-01T06:09:58;2.00;99.90
53904;DHT22;39812;52.430;16.936;2022-12-01T06:12:24;2.00;99.90
53904;DHT22;39812;52.430;16.936;2022-12-01T06:14:49;2.00;99.90
53904;DHT22;39812;52.430;16.936;2022-12-01T06:17:15;2.00;99.90
53904;DHT22;39812;52.430;16.936;2022-12-01T06:19:40;2.10;99.90
53904;DHT22;39812;52.430;16.936;2022-12-01T06:22:07;2.10;99.90
53904;DHT22;39812;52.430;16.936;2022-12-01T06:24:33;2.10;99.90
53904;DHT22;39812;52.430;16.936;2022-12-01T06:26:58;2.00;99.90
53904;DHT22;39812;52.430;16.936;2022-12-01T06:29:24;2.10;99.90
53904;DHT22;39812;52.430;16.936;2022-12-01T06:31:49;2.10;99.90
53904;DHT22;39812;52.430;16.936;2022-12-01T06:34:15;2.00;99.90
53904;DHT22;39812;52.430;16.936;2022-12-01T06:36:40;2.00;99.90
53904;DHT22;39812;52.430;16.936;2022-12-01T06:39:07;1.90;99.90
53904;DHT22;39812;52.430;16.936;2022-12-01T06:41:36;1.90;99.90
53904;DHT22;39812;52.430;16.936;2022-12-01T06:44:02;2.00;99.90
53904;DHT22;39812;52.430;16.936;2022-12-01T06:46:27;2.00;99.90
53904;DHT22;39812;52.430;16.936;2022-12-01T06:48:53;2.00;99.90
53904;DHT22;39812;52.430;16.936;2022-12-01T06:51:18;2.00;99.90
53904;DHT22;39812;52.430;16.936;2022-12-01T06:53:44;2.00;99.90
53904;DHT22;39812;52.430;16.936;2022-12-01T06:56:09;2.00;99.90
53904;DHT22;39812;52.430;16.936;2022-12-01T06:58:35;2.00;99.90
53904;DHT22;39812;52.430;16.936;2022-12-01T07:01:07;2.00;99.90
53904;DHT22;39812;52.430;16.936;2022-12-01T07:03:32;2.00;99.90
53904;DHT22;39812;52.430;16.936;2022-12-01T07:05:59;2.10;99.90
53904;DHT22;39812;52.430;16.936;2022-12-01T07:08:26;2.10;99.90
53904;DHT22;39812;52.430;16.936;2022-12-01T07:10:59;2.00;99.90
53904;DHT22;39812;52.430;16.936;2022-12-01T07:13:25;2.00;99.90
53904;DHT22;39812;52.430;16.936;2022-12-01T07:15:50;2.10;99.90
53904;DHT22;39812;52.430;16.936;2022-12-01T07:18:16;2.10;99.90
53904;DHT22;39812;52.430;16.936;2022-12-01T07:20:41;2.10;99.90
53904;DHT22;39812;52.430;16.936;2022-12-01T07:23:06;2.30;99.90
53904;DHT22;39812;52.430;16.936;2022-12-01T07:25:32;2.20;99.90
53904;DHT22;39812;52.430;16.936;2022-12-01T07:27:57;2.20;99.90
53904;DHT22;39812;52.430;16.936;2022-12-01T07:30:23;2.20;99.90
53904;DHT22;39812;52.430;16.936;2022-12-01T07:32:48;2.30;99.90
53904;DHT22;39812;52.430;16.936;2022-12-01T07:35:14;2.40;99.90
53904;DHT22;39812;52.430;16.936;2022-12-01T07:37:39;2.40;99.90
53904;DHT22;39812;52.430;16.936;2022-12-01T07:40:05;2.50;99.90
53904;DHT22;39812;52.430;16.936;2022-12-01T07:42:31;2.40;99.90
53904;DHT22;39812;52.430;16.936;2022-12-01T07:44:56;2.40;99.90
53904;DHT22;39812;52.430;16.936;2022-12-01T07:47:22;2.40;99.90
53904;DHT22;39812;52.430;16.936;2022-12-01T07:49:47;2.60;99.90
53904;DHT22;39812;52.430;16.936;2022-12-01T07:52:13;2.60;99.90
53904;DHT22;39812;52.430;16.936;2022-12-01T07:54:38;2.80;99.90
53904;DHT22;39812;52.430;16.936;2022-12-01T07:57:04;2.90;99.90
53904;DHT22;39812;52.430;16.936;2022-12-01T07:59:29;2.90;99.90
53904;DHT22;39812;52.430;16.936;2022-12-01T08:01:54;2.90;99.90
53904;DHT22;39812;52.430;16.936;2022-12-01T08:04:20;2.90;99.90
53904;DHT22;39812;52.430;16.936;2022-12-01T08:06:45;2.90;99.90
53904;DHT22;39812;52.430;16.936;2022-12-01T08:09:11;3.00;99.90
53904;DHT22;39812;52.430;16.936;2022-12-01T08:11:36;2.90;99.90
53904;DHT22;39812;52.430;16.936;2022-12-01T08:14:02;2.90;99.90
53904;DHT22;39812;52.430;16.936;2022-12-01T08:16:27;2.80;99.90
53904;DHT22;39812;52.430;16.936;2022-12-01T08:18:53;2.80;99.90
53904;DHT22;39812;52.430;16.936;2022-12-01T08:21:20;2.80;99.90
53904;DHT22;39812;52.430;16.936;2022-12-01T08:23:47;2.80;99.90
53904;DHT22;39812;52.430;16.936;2022-12-01T08:26:16;2.80;99.90
53904;DHT22;39812;52.430;16.936;2022-12-01T08:28:43;2.70;99.90
53904;DHT22;39812;52.430;16.936;2022-12-01T08:31:15;2.70;99.90
53904;DHT22;39812;52.430;16.936;2022-12-01T08:33:41;2.70;99.90
53904;DHT22;39812;52.430;16.936;2022-12-01T08:36:06;2.70;99.90
53904;DHT22;39812;52.430;16.936;2022-12-01T08:38:32;2.70;99.90
53904;DHT22;39812;52.430;16.936;2022-12-01T08:41:02;2.90;99.90
53904;DHT22;39812;52.430;16.936;2022-12-01T08:43:28;2.80;99.90
53904;DHT22;39812;52.430;16.936;2022-12-01T08:45:56;2.90;99.90
53904;DHT22;39812;52.430;16.936;2022-12-01T08:48:22;3.00;99.90
53904;DHT22;39812;52.430;16.936;2022-12-01T08:50:47;3.00;99.90
53904;DHT22;39812;52.430;16.936;2022-12-01T08:53:13;3.20;99.90
53904;DHT22;39812;52.430;16.936;2022-12-01T08:55:38;3.20;99.90
53904;DHT22;39812;52.430;16.936;2022-12-01T08:58:04;3.30;99.90
53904;DHT22;39812;52.430;16.936;2022-12-01T09:00:29;3.40;99.90
53904;DHT22;39812;52.430;16.936;2022-12-01T09:02:54;3.50;99.90
53904;DHT22;39812;52.430;16.936;2022-12-01T09:05:20;3.50;99.90
53904;DHT22;39812;52.430;16.936;2022-12-01T09:07:45;3.60;99.90
53904;DHT22;39812;52.430;16.936;2022-12-01T09:10:31;3.80;99.90
53904;DHT22;39812;52.430;16.936;2022-12-01T09:12:56;3.90;99.90
53904;DHT22;39812;52.430;16.936;2022-12-01T09:15:22;3.90;99.90
53904;DHT22;39812;52.430;16.936;2022-12-01T09:17:47;3.90;99.90
53904;DHT22;39812;52.430;16.936;2022-12-01T09:20:13;4.00;99.90
53904;DHT22;39812;52.430;16.936;2022-12-01T09:22:38;4.00;99.90
53904;DHT22;39812;52.430;16.936;2022-12-01T09:25:04;4.00;99.90
53904;DHT22;39812;52.430;16.936;2022-12-01T09:27:31;4.00;99.90
53904;DHT22;39812;52.430;16.936;2022-12-01T09:29:56;4.10;99.90
53904;DHT22;39812;52.430;16.936;2022-12-01T09:32:25;4.10;99.90
53904;DHT22;39812;52.430;16.936;2022-12-01T09:34:50;4.10;99.90
53904;DHT22;39812;52.430;16.936;2022-12-01T09:37:16;4.10;99.90
53904;DHT22;39812;52.430;16.936;2022-12-01T09:39:41;4.10;99.90
53904;DHT22;39812;52.430;16.936;2022-12-01T09:42:11;4.10;99.90
53904;DHT22;39812;52.430;16.936;2022-12-01T09:44:44;4.20;99.90
53904;DHT22;39812;52.430;16.936;2022-12-01T09:47:18;4.20;99.90
53904;DHT22;39812;52.430;16.936;2022-12-01T09:49:57;4.30;99.90
53904;DHT22;39812;52.430;16.936;2022-12-01T09:52:25;4.30;99.90
53904;DHT22;39812;52.430;16.936;2022-12-01T09:54:52;4.20;99.90
53904;DHT22;39812;52.430;16.936;2022-12-01T09:57:35;4.30;99.90
53904;DHT22;39812;52.430;16.936;2022-12-01T10:00:14;4.20;99.90
53904;DHT22;39812;52.430;16.936;2022-12-01T10:02:43;4.40;99.90
53904;DHT22;39812;52.430;16.936;2022-12-01T10:05:15;4.50;99.90
53904;DHT22;39812;52.430;16.936;2022-12-01T10:07:46;4.50;99.90
53904;DHT22;39812;52.430;16.936;2022-12-01T10:10:24;4.60;99.90
53904;DHT22;39812;52.430;16.936;2022-12-01T10:12:50;4.70;99.90
53904;DHT22;39812;52.430;16.936;2022-12-01T10:15:34;4.90;99.90
53904;DHT22;39812;52.430;16.936;2022-12-01T10:18:17;4.90;99.90
53904;DHT22;39812;52.430;16.936;2022-12-01T10:24:02;5.00;99.90
53904;DHT22;39812;52.430;16.936;2022-12-01T10:29:36;5.00;99.90
53904;DHT22;39812;52.430;16.936;2022-12-01T10:32:28;4.90;99.90
53904;DHT22;39812;52.430;16.936;2022-12-01T10:34:57;4.90;99.90
53904;DHT22;39812;52.430;16.936;2022-12-01T10:37:25;5.00;99.90
53904;DHT22;39812;52.430;16.936;2022-12-01T10:39:53;5.00;99.90
53904;DHT22;39812;52.430;16.936;2022-12-01T10:45:03;5.00;99.90
53904;DHT22;39812;52.430;16.936;2022-12-01T10:47:31;5.00;99.90
53904;DHT22;39812;52.430;16.936;2022-12-01T10:49:57;5.00;99.90
53904;DHT22;39812;52.430;16.936;2022-12-01T10:52:38;5.00;99.90
53904;DHT22;39812;52.430;16.936;2022-12-01T10:55:26;5.00;99.90
53904;DHT22;39812;52.430;16.936;2022-12-01T10:57:55;5.00;99.90
53904;DHT22;39812;52.430;16.936;2022-12-01T11:00:23;4.90;99.90
53904;DHT22;39812;52.430;16.936;2022-12-01T11:02:49;4.90;99.90
53904;DHT22;39812;52.430;16.936;2022-12-01T11:05:27;4.80;99.90
53904;DHT22;39812;52.430;16.936;2022-12-01T11:07:53;4.70;99.90
53904;DHT22;39812;52.430;16.936;2022-12-01T11:13:06;4.50;99.90
53904;DHT22;39812;52.430;16.936;2022-12-01T11:15:39;4.60;99.90
53904;DHT22;39812;52.430;16.936;2022-12-01T11:18:23;4.40;99.90
53904;DHT22;39812;52.430;16.936;2022-12-01T11:21:08;4.40;99.90
53904;DHT22;39812;52.430;16.936;2022-12-01T11:23:45;4.40;99.90
53904;DHT22;39812;52.430;16.936;2022-12-01T11:26:22;4.40;99.90
53904;DHT22;39812;52.430;16.936;2022-12-01T11:29:01;4.20;99.90
53904;DHT22;39812;52.430;16.936;2022-12-01T11:31:45;4.20;99.90
53904;DHT22;39812;52.430;16.936;2022-12-01T11:36:49;4.20;99.90
53904;DHT22;39812;52.430;16.936;2022-12-01T11:39:34;4.10;99.90
53904;DHT22;39812;52.430;16.936;2022-12-01T11:42:01;4.10;99.90
53904;DHT22;39812;52.430;16.936;2022-12-01T11:44:29;4.10;99.90
53904;DHT22;39812;52.430;16.936;2022-12-01T11:46:55;4.20;99.90
53904;DHT22;39812;52.430;16.936;2022-12-01T11:49:23;4.30;99.90
53904;DHT22;39812;52.430;16.936;2022-12-01T11:51:50;4.30;99.90
53904;DHT22;39812;52.430;16.936;2022-12-01T11:54:24;4.30;99.90
53904;DHT22;39812;52.430;16.936;2022-12-01T11:56:52;4.20;99.90
53904;DHT22;39812;52.430;16.936;2022-12-01T11:59:26;4.20;99.90
53904;DHT22;39812;52.430;16.936;2022-12-01T12:02:18;4.30;99.90
53904;DHT22;39812;52.430;16.936;2022-12-01T12:07:43;4.30;99.90
53904;DHT22;39812;52.430;16.936;2022-12-01T12:15:32;4.60;99.90
53904;DHT22;39812;52.430;16.936;2022-12-01T12:18:26;4.50;99.90
53904;DHT22;39812;52.430;16.936;2022-12-01T12:21:24;4.60;99.90
53904;DHT22;39812;52.430;16.936;2022-12-01T12:24:10;4.70;99.90
53904;DHT22;39812;52.430;16.936;2022-12-01T12:26:42;4.70;99.90
53904;DHT22;39812;52.430;16.936;2022-12-01T12:34:39;4.70;99.90
53904;DHT22;39812;52.430;16.936;2022-12-01T12:37:18;4.60;99.90
53904;DHT22;39812;52.430;16.936;2022-12-01T12:43:04;4.60;99.90
53904;DHT22;39812;52.430;16.936;2022-12-01T12:46:04;4.50;99.90
53904;DHT22;39812;52.430;16.936;2022-12-01T12:49:03;4.50;99.90
53904;DHT22;39812;52.430;16.936;2022-12-01T12:51:38;4.50;99.90
53904;DHT22;39812;52.430;16.936;2022-12-01T12:54:16;4.50;99.90
53904;DHT22;39812;52.430;16.936;2022-12-01T12:56:47;4.30;99.90
53904;DHT22;39812;52.430;16.936;2022-12-01T12:59:21;4.30;99.90
53904;DHT22;39812;52.430;16.936;2022-12-01T13:01:58;4.30;99.90
53904;DHT22;39812;52.430;16.936;2022-12-01T13:04:33;4.30;99.90
53904;DHT22;39812;52.430;16.936;2022-12-01T13:07:19;4.40;99.90
53904;DHT22;39812;52.430;16.936;2022-12-01T13:09:51;4.40;99.90
53904;DHT22;39812;52.430;16.936;2022-12-01T13:12:29;4.40;99.90
53904;DHT22;39812;52.430;16.936;2022-12-01T13:15:11;4.40;99.90
53904;DHT22;39812;52.430;16.936;2022-12-01T13:17:40;4.50;99.90
53904;DHT22;39812;52.430;16.936;2022-12-01T13:20:16;4.40;99.90
53904;DHT22;39812;52.430;16.936;2022-12-01T13:22:43;4.50;99.90
53904;DHT22;39812;52.430;16.936;2022-12-01T13:25:12;4.40;99.90
53904;DHT22;39812;52.430;16.936;2022-12-01T13:27:40;4.50;99.90
53904;DHT22;39812;52.430;16.936;2022-12-01T13:30:18;4.50;99.90
53904;DHT22;39812;52.430;16.936;2022-12-01T13:32:45;4.50;99.90
53904;DHT22;39812;52.430;16.936;2022-12-01T13:35:35;4.40;99.90
53904;DHT22;39812;52.430;16.936;2022-12-01T13:38:18;4.50;99.90
53904;DHT22;39812;52.430;16.936;2022-12-01T13:40:45;4.50;99.90
53904;DHT22;39812;52.430;16.936;2022-12-01T13:43:19;4.30;99.90
53904;DHT22;39812;52.430;16.936;2022-12-01T13:45:46;4.20;99.90
53904;DHT22;39812;52.430;16.936;2022-12-01T13:48:27;4.00;99.90
53904;DHT22;39812;52.430;16.936;2022-12-01T13:50:56;3.90;99.90
53904;DHT22;39812;52.430;16.936;2022-12-01T13:58:47;3.80;99.90
53904;DHT22;39812;52.430;16.936;2022-12-01T14:03:55;3.80;99.90
53904;DHT22;39812;52.430;16.936;2022-12-01T14:06:37;3.80;99.90
53904;DHT22;39812;52.430;16.936;2022-12-01T14:09:05;3.70;99.90
53904;DHT22;39812;52.430;16.936;2022-12-01T14:11:33;3.90;99.90
53904;DHT22;39812;52.430;16.936;2022-12-01T14:16:54;3.90;99.90
53904;DHT22;39812;52.430;16.936;2022-12-01T14:19:36;4.00;99.90
53904;DHT22;39812;52.430;16.936;2022-12-01T14:22:05;4.00;99.90
53904;DHT22;39812;52.430;16.936;2022-12-01T14:24:36;4.00;99.90
53904;DHT22;39812;52.430;16.936;2022-12-01T14:27:03;4.00;99.90
53904;DHT22;39812;52.430;16.936;2022-12-01T14:29:39;3.90;99.90
53904;DHT22;39812;52.430;16.936;2022-12-01T14:34:34;4.00;99.90
53904;DHT22;39812;52.430;16.936;2022-12-01T14:37:05;4.00;99.90
53904;DHT22;39812;52.430;16.936;2022-12-01T14:39:34;3.90;99.90
53904;DHT22;39812;52.430;16.936;2022-12-01T14:45:06;3.80;99.90
53904;DHT22;39812;52.430;16.936;2022-12-01T14:47:41;3.60;99.90
53904;DHT22;39812;52.430;16.936;2022-12-01T14:50:14;3.60;99.90
53904;DHT22;39812;52.430;16.936;2022-12-01T14:52:43;3.60;99.90
53904;DHT22;39812;52.430;16.936;2022-12-01T14:55:25;3.70;99.90
53904;DHT22;39812;52.430;16.936;2022-12-01T14:58:02;3.50;99.90
53904;DHT22;39812;52.430;16.936;2022-12-01T15:00:30;3.40;99.90
53904;DHT22;39812;52.430;16.936;2022-12-01T15:02:59;3.30;99.90
53904;DHT22;39812;52.430;16.936;2022-12-01T15:05:27;3.30;99.90
53904;DHT22;39812;52.430;16.936;2022-12-01T15:07:56;3.30;99.90
53904;DHT22;39812;52.430;16.936;2022-12-01T15:10:26;3.30;99.90
53904;DHT22;39812;52.430;16.936;2022-12-01T15:12:52;3.40;99.90
53904;DHT22;39812;52.430;16.936;2022-12-01T15:15:23;3.40;99.90
53904;DHT22;39812;52.430;16.936;2022-12-01T15:17:50;3.40;99.90
53904;DHT22;39812;52.430;16.936;2022-12-01T15:20:36;3.40;99.90
53904;DHT22;39812;52.430;16.936;2022-12-01T15:23:13;3.30;99.90
53904;DHT22;39812;52.430;16.936;2022-12-01T15:25:41;3.20;99.90
53904;DHT22;39812;52.430;16.936;2022-12-01T15:28:19;3.20;99.90
53904;DHT22;39812;52.430;16.936;2022-12-01T15:30:52;3.20;99.90
53904;DHT22;39812;52.430;16.936;2022-12-01T15:33:26;3.20;99.90
53904;DHT22;39812;52.430;16.936;2022-12-01T15:35:52;3.20;99.90
53904;DHT22;39812;52.430;16.936;2022-12-01T15:38:22;3.20;99.90
53904;DHT22;39812;52.430;16.936;2022-12-01T15:40:50;3.10;99.90
53904;DHT22;39812;52.430;16.936;2022-12-01T15:43:24;3.20;99.90
53904;DHT22;39812;52.430;16.936;2022-12-01T15:45:55;3.30;99.90
53904;DHT22;39812;52.430;16.936;2022-12-01T15:48:31;3.30;99.90
53904;DHT22;39812;52.430;16.936;2022-12-01T15:51:04;3.20;99.90
53904;DHT22;39812;52.430;16.936;2022-12-01T15:53:32;3.10;99.90
53904;DHT22;39812;52.430;16.936;2022-12-01T15:56:00;3.10;99.90
53904;DHT22;39812;52.430;16.936;2022-12-01T15:58:30;3.10;99.90
53904;DHT22;39812;52.430;16.936;2022-12-01T16:01:04;3.10;99.90
53904;DHT22;39812;52.430;16.936;2022-12-01T16:03:58;3.00;99.90
53904;DHT22;39812;52.430;16.936;2022-12-01T16:06:29;3.10;99.90
53904;DHT22;39812;52.430;16.936;2022-12-01T16:09:02;3.10;99.90
53904;DHT22;39812;52.430;16.936;2022-12-01T16:11:28;3.00;99.90
53904;DHT22;39812;52.430;16.936;2022-12-01T16:16:45;3.10;99.90
53904;DHT22;39812;52.430;16.936;2022-12-01T16:21:48;3.20;99.90
53904;DHT22;39812;52.430;16.936;2022-12-01T16:24:18;3.20;99.90
53904;DHT22;39812;52.430;16.936;2022-12-01T16:26:49;3.20;99.90
53904;DHT22;39812;52.430;16.936;2022-12-01T16:29:21;3.20;99.90
53904;DHT22;39812;52.430;16.936;2022-12-01T16:31:48;3.10;99.90
53904;DHT22;39812;52.430;16.936;2022-12-01T16:34:20;3.10;99.90
53904;DHT22;39812;52.430;16.936;2022-12-01T16:36:45;3.10;99.90
53904;DHT22;39812;52.430;16.936;2022-12-01T16:39:14;3.10;99.90
53904;DHT22;39812;52.430;16.936;2022-12-01T16:41:41;3.20;99.90
53904;DHT22;39812;52.430;16.936;2022-12-01T16:44:11;3.10;99.90
53904;DHT22;39812;52.430;16.936;2022-12-01T16:46:37;3.20;99.90
53904;DHT22;39812;52.430;16.936;2022-12-01T16:49:03;3.10;99.90
53904;DHT22;39812;52.430;16.936;2022-12-01T16:51:28;3.10;99.90
53904;DHT22;39812;52.430;16.936;2022-12-01T16:53:54;3.10;99.90
53904;DHT22;39812;52.430;16.936;2022-12-01T16:56:19;3.10;99.90
53904;DHT22;39812;52.430;16.936;2022-12-01T16:58:45;3.10;99.90
53904;DHT22;39812;52.430;16.936;2022-12-01T17:01:10;3.10;99.90
53904;DHT22;39812;52.430;16.936;2022-12-01T17:03:36;3.10;99.90